Time;durP1;ratioP1;P1;durP2;ratioP2;P2;SDS_P1;SDS_P2;PMS_P1;PMS_P2;Temp;Humidity;BMP_temperature;BMP_pressure;BME280_temperature;BME280_humidity;BME280_pressure;Samples;Min_cycle;Max_cycle;Signal;HPM_P1;HPM_P2
2024/01/15 00:01:48;;;;;;;1.60;0.95;;;;;;;0.65;100.00;100341.47;5089179;28;20045;-78
2024/01/15 00:04:16;;;;;;;5.53;1.30;;;;;;;0.62;100.00;100342.22;5085154;28;20044;-77
2024/01/15 00:06:43;;;;;;;3.97;1.25;;;;;;;0.59;100.00;100332.50;5082378;28;20106;-78
2024/01/15 00:09:09;;;;;;;2.15;0.90;;;;;;;0.57;100.00;100331.41;5110595;28;20127;-78
2024/01/15 00:11:37;;;;;;;2.60;0.93;;;;;;;0.54;100.00;100332.91;5104363;28;20157;-78
2024/01/15 00:14:03;;;;;;;5.28;0.68;;;;;;;0.51;100.00;100320.56;5107132;28;20048;-78
2024/01/15 00:16:30;;;;;;;4.88;0.82;;;;;;;0.48;100.00;100325.81;5096823;28;20044;-78
2024/01/15 00:18:57;;;;;;;1.75;0.90;;;;;;;0.45;100.00;100321.31;5087011;28;20062;-79
2024/01/15 00:21:23;;;;;;;10.57;0.98;;;;;;;0.42;100.00;100320.22;5108785;28;20047;-79
2024/01/15 00:23:50;;;;;;;1.05;0.73;;;;;;;0.40;100.00;100316.50;5090506;28;20396;-79
2024/01/15 00:26:17;;;;;;;8.18;0.65;;;;;;;0.38;100.00;100314.28;5113580;28;20040;-79
2024/01/15 00:28:43;;;;;;;4.90;0.60;;;;;;;0.36;100.00;100305.31;5088655;28;20040;-78
2024/01/15 00:31:10;;;;;;;1.80;0.95;;;;;;;0.33;100.00;100307.56;5108335;27;20055;-80
2024/01/15 00:33:37;;;;;;;3.63;1.15;;;;;;;0.31;100.00;100299.31;5110782;28;20067;-79
2024/01/15 00:36:04;;;;;;;3.55;0.88;;;;;;;0.28;100.00;100307.19;5111062;28;20515;-78
2024/01/15 00:38:30;;;;;;;11.27;0.93;;;;;;;0.26;100.00;100301.59;5110564;28;20044;-78
2024/01/15 00:40:57;;;;;;;5.40;0.98;;;;;;;0.22;100.00;100298.97;5114430;28;20099;-78
2024/01/15 00:43:23;;;;;;;8.32;1.13;;;;;;;0.20;100.00;100296.00;5113839;28;20067;-78
2024/01/15 00:45:50;;;;;;;3.78;1.05;;;;;;;0.17;100.00;100298.63;5110951;28;20123;-78
2024/01/15 00:48:17;;;;;;;2.80;0.90;;;;;;;0.16;100.00;100286.66;5094955;28;20105;-79
2024/01/15 00:50:43;;;;;;;2.60;0.93;;;;;;;0.14;100.00;100286.28;5109776;28;20048;-78
2024/01/15 00:53:10;;;;;;;8.98;1.67;;;;;;;0.12;100.00;100276.19;5104816;28;20052;-78
2024/01/15 00:55:37;;;;;;;1.38;0.63;;;;;;;0.10;100.00;100283.69;5108494;28;20044;-78
2024/01/15 00:58:04;;;;;;;6.70;1.10;;;;;;;0.08;100.00;100278.06;5110796;28;20067;-78
2024/01/15 01:00:30;;;;;;;6.88;1.15;;;;;;;0.07;100.00;100284.44;5111998;28;20076;-79
2024/01/15 01:02:57;;;;;;;10.02;1.30;;;;;;;0.05;100.00;100281.44;5110408;28;20041;-78
2024/01/15 01:05:24;;;;;;;7.63;0.98;;;;;;;0.03;100.00;100282.94;5107818;28;20090;-78
2024/01/15 01:07:50;;;;;;;5.03;1.17;;;;;;;0.00;100.00;100274.72;5102676;28;20048;-78
2024/01/15 01:10:17;;;;;;;9.45;1.30;;;;;;;0.00;100.00;100274.00;5109680;28;20056;-78
2024/01/15 01:12:43;;;;;;;6.70;1.20;;;;;;;-0.04;100.00;100265.41;5108342;28;20515;-78
2024/01/15 01:15:10;;;;;;;5.70;0.98;;;;;;;-0.06;100.00;100267.66;5107070;28;20040;-78
2024/01/15 01:17:37;;;;;;;6.72;1.05;;;;;;;-0.08;100.00;100267.28;5115182;28;20127;-78
2024/01/15 01:20:06;;;;;;;5.97;1.35;;;;;;;-0.10;100.00;100265.06;5115906;28;20040;-78
2024/01/15 01:22:33;;;;;;;8.30;1.55;;;;;;;-0.11;100.00;100257.56;5107549;28;20040;-78
2024/01/15 01:24:59;;;;;;;5.45;1.23;;;;;;;-0.14;100.00;100258.34;5109393;28;20052;-77
2024/01/15 01:27:26;;;;;;;4.85;1.33;;;;;;;-0.14;100.00;100259.06;5106955;28;20560;-77
2024/01/15 01:29:53;;;;;;;5.70;0.82;;;;;;;-0.14;100.00;100264.31;5104499;28;20123;-77
2024/01/15 01:32:19;;;;;;;1.90;1.00;;;;;;;-0.15;100.00;100265.44;5103411;28;20048;-77
2024/01/15 01:34:46;;;;;;;8.50;1.52;;;;;;;-0.12;100.00;100271.78;5108987;28;20078;-77
2024/01/15 01:37:16;;;;;;;4.65;0.93;;;;;;;-0.10;100.00;100269.53;5108842;28;20055;-77
2024/01/15 01:39:43;;;;;;;1.58;0.85;;;;;;;-0.10;100.00;100265.06;5108606;28;20044;-77
2024/01/15 01:42:11;;;;;;;4.07;1.25;;;;;;;-0.06;100.00;100267.66;5069783;27;20071;-77
2024/01/15 01:44:38;;;;;;;7.88;1.10;;;;;;;-0.07;100.00;100264.31;5108015;28;20082;-77
2024/01/15 01:47:05;;;;;;;6.55;1.02;;;;;;;-0.05;100.00;100261.31;5110455;28;20423;-77
2024/01/15 01:49:32;;;;;;;12.50;1.33;;;;;;;-0.05;100.00;100269.16;5108201;28;20071;-77
2024/01/15 01:52:01;;;;;;;3.17;1.08;;;;;;;-0.06;100.00;100265.03;5104635;28;20075;-77
2024/01/15 01:54:31;;;;;;;5.07;1.15;;;;;;;-0.03;100.00;100259.06;5108716;28;20044;-77
2024/01/15 01:56:58;;;;;;;4.68;0.90;;;;;;;-0.03;100.00;100256.44;5108644;28;20115;-77
2024/01/15 01:59:27;;;;;;;4.72;0.85;;;;;;;-0.01;100.00;100265.41;5111169;28;20036;-77
2024/01/15 02:01:55;;;;;;;7.80;0.90;;;;;;;0.01;100.00;100262.38;5087215;28;20587;-77
2024/01/15 02:04:25;;;;;;;6.15;0.82;;;;;;;0.04;100.00;100264.25;5085050;28;20052;-76
2024/01/15 02:06:52;;;;;;;8.33;1.70;;;;;;;0.09;100.00;100263.13;5082117;28;20051;-77
2024/01/15 02:09:19;;;;;;;7.15;1.25;;;;;;;0.15;100.00;100261.59;5109863;28;20217;-77
2024/01/15 02:11:49;;;;;;;2.25;1.13;;;;;;;0.21;100.00;100276.53;5107019;28;20044;-77
2024/01/15 02:14:16;;;;;;;5.60;0.70;;;;;;;0.28;100.00;100292.22;5108539;28;20095;-77
2024/01/15 02:16:42;;;;;;;8.05;1.13;;;;;;;0.37;100.00;100288.47;5110006;28;20064;-79
2024/01/15 02:19:16;;;;;;;3.55;0.68;;;;;;;0.46;100.00;100284.28;5123724;28;20052;-79
2024/01/15 02:21:43;;;;;;;6.40;1.17;;;;;;;0.50;100.00;100279.78;5097706;28;20047;-80
2024/01/15 02:24:11;;;;;;;7.57;1.13;;;;;;;0.51;100.00;100280.53;5097816;28;20987;-80
2024/01/15 02:26:38;;;;;;;5.53;1.08;;;;;;;0.52;100.00;100277.53;5106207;28;20040;-79
2024/01/15 02:29:08;;;;;;;8.57;1.17;;;;;;;0.48;100.00;100271.56;5115220;28;20024;-79
2024/01/15 02:31:36;;;;;;;4.55;1.10;;;;;;;0.47;100.00;100274.56;5121033;28;20044;-79
2024/01/15 02:34:02;;;;;;;11.07;0.98;;;;;;;0.43;100.00;100274.56;5119681;28;20131;-79
2024/01/15 02:36:29;;;;;;;4.75;0.57;;;;;;;0.43;100.00;100264.09;5110098;28;20042;-79
2024/01/15 02:38:56;;;;;;;3.33;0.60;;;;;;;0.43;100.00;100264.09;5107095;28;20062;-78
2024/01/15 02:41:23;;;;;;;3.33;0.73;;;;;;;0.42;100.00;100267.09;5125172;28;20106;-78
2024/01/15 02:43:49;;;;;;;2.83;0.47;;;;;;;0.42;100.00;100262.59;5129784;28;20075;-78
2024/01/15 02:46:16;;;;;;;1.08;0.32;;;;;;;0.42;100.00;100265.22;5127778;28;20037;-78
2024/01/15 02:48:42;;;;;;;2.05;0.20;;;;;;;0.43;100.00;100263.34;5126640;28;20097;-79
2024/01/15 02:51:11;;;;;;;3.88;0.50;;;;;;;0.44;100.00;100257.72;5133899;28;20036;-78
2024/01/15 02:53:39;;;;;;;3.17;0.30;;;;;;;0.45;100.00;100251.38;5127456;27;20122;-78
2024/01/15 02:56:07;;;;;;;3.92;0.90;;;;;;;0.46;100.00;100255.47;5104204;28;20043;-78
2024/01/15 02:58:34;;;;;;;3.25;0.30;;;;;;;0.48;100.00;100252.47;5109766;28;20040;-77
2024/01/15 03:01:00;;;;;;;2.00;0.40;;;;;;;0.47;100.00;100254.34;5110466;28;20040;-77
2024/01/15 03:03:27;;;;;;;5.07;0.40;;;;;;;0.46;100.00;100252.84;5104162;28;20054;-77
2024/01/15 03:05:54;;;;;;;2.42;1.05;;;;;;;0.46;100.00;100250.25;5105689;28;20048;-77
2024/01/15 03:08:22;;;;;;;1.80;0.50;;;;;;;0.45;100.00;100248.00;5107823;28;20054;-77
2024/01/15 03:10:49;;;;;;;3.95;0.60;;;;;;;0.43;100.00;100247.63;5109617;28;20125;-77
2024/01/15 03:13:16;;;;;;;3.58;0.70;;;;;;;0.41;100.00;100242.03;5105783;28;20094;-77
2024/01/15 03:15:43;;;;;;;1.92;0.38;;;;;;;0.37;100.00;100249.94;5107356;28;20044;-77
2024/01/15 03:18:10;;;;;;;2.58;0.80;;;;;;;0.33;100.00;100247.31;5107037;28;20048;-77
2024/01/15 03:20:37;;;;;;;3.72;0.65;;;;;;;0.31;100.00;100243.59;5084480;28;20135;-77
2024/01/15 03:23:03;;;;;;;1.40;0.50;;;;;;;0.27;100.00;100245.47;5106646;28;20051;-77
2024/01/15 03:25:30;;;;;;;7.57;0.60;;;;;;;0.22;100.00;100244.00;5104845;28;20551;-77
2024/01/15 03:27:57;;;;;;;4.03;0.65;;;;;;;0.21;100.00;100242.50;5102237;28;20041;-77
2024/01/15 03:30:23;;;;;;;0.88;0.40;;;;;;;0.18;100.00;100251.13;5106289;28;20506;-75
2024/01/15 03:32:52;;;;;;;5.60;0.65;;;;;;;0.18;100.00;100247.75;5113029;28;20147;-74
2024/01/15 03:35:19;;;;;;;3.70;0.50;;;;;;;0.17;100.00;100247.00;5110785;28;20048;-74
2024/01/15 03:37:45;;;;;;;3.17;0.43;;;;;;;0.20;100.00;100250.75;5105683;28;20102;-74
2024/01/15 03:40:12;;;;;;;3.00;0.50;;;;;;;0.24;100.00;100249.59;5109630;28;20511;-75
2024/01/15 03:42:39;;;;;;;1.52;0.80;;;;;;;0.27;100.00;100255.94;5104444;28;20131;-74
2024/01/15 03:45:06;;;;;;;1.92;0.30;;;;;;;0.29;100.00;100267.53;5103252;28;20045;-75
2024/01/15 03:47:32;;;;;;;2.67;0.30;;;;;;;0.30;100.00;100271.66;5109406;28;20131;-75
2024/01/15 03:49:59;;;;;;;1.45;0.35;;;;;;;0.29;100.00;100264.91;5103134;28;20084;-75
2024/01/15 03:52:25;;;;;;;3.95;0.75;;;;;;;0.28;100.00;100260.81;5105124;28;20198;-76
2024/01/15 03:54:52;;;;;;;1.13;0.50;;;;;;;0.28;100.00;100257.44;5091882;28;20419;-77
2024/01/15 03:57:19;;;;;;;1.77;0.47;;;;;;;0.26;100.00;100234.25;5107262;28;20044;-77
2024/01/15 03:59:47;;;;;;;1.90;0.55;;;;;;;0.26;100.00;100231.66;5107734;28;20504;-77
2024/01/15 04:02:14;;;;;;;2.17;0.70;;;;;;;0.22;100.00;100220.44;5108701;28;20048;-77
2024/01/15 04:04:41;;;;;;;3.30;0.45;;;;;;;0.16;100.00;100219.34;5109037;28;20048;-77
2024/01/15 04:07:11;;;;;;;3.17;0.70;;;;;;;0.12;100.00;100230.94;5103523;28;20045;-77
2024/01/15 04:09:38;;;;;;;1.58;0.40;;;;;;;0.09;100.00;100226.47;5108179;28;20048;-77
2024/01/15 04:12:05;;;;;;;0.65;0.30;;;;;;;0.06;100.00;100216.75;5106702;28;20047;-77
2024/01/15 04:14:32;;;;;;;2.75;0.40;;;;;;;0.03;100.00;100202.56;5105750;28;20569;-76
2024/01/15 04:16:58;;;;;;;6.22;0.47;;;;;;;0.02;100.00;100201.06;5109259;28;20403;-76
2024/01/15 04:19:25;;;;;;;1.90;0.70;;;;;;;-0.01;100.00;100201.84;5106692;28;20039;-77
2024/01/15 04:21:51;;;;;;;2.40;0.47;;;;;;;-0.01;100.00;100207.84;5106034;28;20044;-77
2024/01/15 04:24:18;;;;;;;2.15;0.57;;;;;;;-0.03;100.00;100202.22;5104419;28;20044;-77
2024/01/15 04:26:45;;;;;;;3.40;0.65;;;;;;;-0.03;100.00;100196.25;5106023;28;20049;-77
2024/01/15 04:29:12;;;;;;;4.30;0.77;;;;;;;-0.05;100.00;100198.50;5104593;28;20040;-76
2024/01/15 04:31:38;;;;;;;3.08;0.60;;;;;;;-0.07;100.00;100198.88;5103273;28;20040;-76
2024/01/15 04:34:05;;;;;;;1.15;0.55;;;;;;;-0.08;100.00;100200.00;5106539;28;20044;-76
2024/01/15 04:36:38;;;;;;;1.30;0.68;;;;;;;-0.08;100.00;100197.38;5108129;28;20128;-76
2024/01/15 04:39:05;;;;;;;3.92;0.65;;;;;;;-0.09;100.00;100193.28;5099760;28;20424;-76
2024/01/15 04:41:31;;;;;;;3.15;0.95;;;;;;;-0.09;100.00;100187.31;5105505;28;20484;-76
2024/01/15 04:44:00;;;;;;;2.22;0.70;;;;;;;-0.10;100.00;100186.56;5104687;28;20265;-76
2024/01/15 04:46:26;;;;;;;6.28;0.70;;;;;;;-0.12;100.00;100178.34;5105428;28;20040;-77
2024/01/15 04:48:53;;;;;;;4.57;0.65;;;;;;;-0.11;100.00;100174.59;5102945;28;20422;-75
2024/01/15 04:51:20;;;;;;;4.82;0.80;;;;;;;-0.11;100.00;100169.38;5105005;28;20123;-76
2024/01/15 04:53:46;;;;;;;1.73;0.50;;;;;;;-0.10;100.00;100170.09;5104628;28;20044;-76
2024/01/15 04:56:13;;;;;;;4.65;0.68;;;;;;;-0.08;100.00;100170.47;5104621;28;20055;-76
2024/01/15 04:58:39;;;;;;;2.03;0.68;;;;;;;-0.06;100.00;100176.06;5104344;28;20040;-75
2024/01/15 05:01:10;;;;;;;3.30;0.88;;;;;;;-0.04;100.00;100179.06;5104087;28;20124;-76
2024/01/15 05:03:37;;;;;;;4.45;0.60;;;;;;;-0.02;100.00;100179.44;5102155;28;20044;-75
2024/01/15 05:06:04;;;;;;;4.50;1.35;;;;;;;0.01;100.00;100181.25;5103064;28;20511;-76
2024/01/15 05:08:30;;;;;;;3.15;0.70;;;;;;;0.02;100.00;100177.50;5110193;28;20127;-76
2024/01/15 05:10:57;;;;;;;3.83;0.68;;;;;;;0.02;100.00;100174.91;5103493;28;20538;-76
2024/01/15 05:13:24;;;;;;;1.77;0.40;;;;;;;0.02;100.00;100177.50;5104391;28;20126;-76
2024/01/15 05:15:50;;;;;;;1.80;0.47;;;;;;;0.01;100.00;100173.41;5106578;28;20853;-76
2024/01/15 05:18:17;;;;;;;2.67;0.88;;;;;;;0.03;100.00;100173.03;5103991;28;20110;-77
2024/01/15 05:20:44;;;;;;;2.45;0.75;;;;;;;0.03;100.00;100162.56;5108460;28;20414;-76
2024/01/15 05:23:10;;;;;;;4.55;1.10;;;;;;;0.03;100.00;100150.22;5111624;28;20067;-76
2024/01/15 05:25:37;;;;;;;1.00;0.30;;;;;;;0.04;100.00;100156.94;5107619;28;20431;-76
2024/01/15 05:28:05;;;;;;;2.42;0.57;;;;;;;0.05;100.00;100165.53;5106730;28;20045;-75
2024/01/15 05:30:31;;;;;;;4.43;0.80;;;;;;;0.02;100.00;100158.44;5107907;28;20052;-76
2024/01/15 05:33:00;;;;;;;0.82;0.40;;;;;;;0.03;100.00;100162.56;5108817;28;20103;-77
2024/01/15 05:35:26;;;;;;;4.18;0.47;;;;;;;0.04;100.00;100161.44;5109420;28;20538;-76
2024/01/15 05:37:53;;;;;;;4.18;0.95;;;;;;;0.04;100.00;100161.44;5107637;28;20044;-77
2024/01/15 05:40:19;;;;;;;3.70;0.60;;;;;;;0.04;100.00;100167.41;5104292;28;20090;-76
2024/01/15 05:42:46;;;;;;;2.75;0.80;;;;;;;0.05;100.00;100179.38;5111764;28;20111;-76
2024/01/15 05:45:12;;;;;;;4.05;1.10;;;;;;;0.06;100.00;100175.63;5110288;28;20041;-76
2024/01/15 05:47:39;;;;;;;3.08;0.57;;;;;;;0.06;100.00;100172.28;5107402;28;20033;-75
2024/01/15 05:50:08;;;;;;;1.55;0.80;;;;;;;0.07;100.00;100173.75;5109991;28;20068;-76
2024/01/15 05:52:36;;;;;;;5.35;0.65;;;;;;;0.07;100.00;100166.66;5105681;28;20944;-75
2024/01/15 05:55:03;;;;;;;2.33;0.77;;;;;;;0.08;100.00;100170.75;5086791;28;20887;-76
2024/01/15 05:57:29;;;;;;;2.13;0.88;;;;;;;0.09;100.00;100166.28;5104964;28;20524;-75
2024/01/15 05:59:56;;;;;;;3.40;1.30;;;;;;;0.11;100.00;100180.47;5106817;28;20491;-75
2024/01/15 06:02:23;;;;;;;2.28;0.82;;;;;;;0.14;100.00;100184.94;5107696;28;20059;-76
2024/01/15 06:04:49;;;;;;;13.73;1.17;;;;;;;0.15;100.00;100178.59;5106790;28;20045;-77
2024/01/15 06:07:16;;;;;;;3.30;0.73;;;;;;;0.18;100.00;100179.69;5075762;28;20083;-77
2024/01/15 06:09:42;;;;;;;4.97;1.10;;;;;;;0.21;100.00;100189.41;5111798;28;20060;-77
2024/01/15 06:12:09;;;;;;;3.80;0.73;;;;;;;0.22;100.00;100191.66;5108006;28;20122;-77
2024/01/15 06:14:36;;;;;;;1.40;0.50;;;;;;;0.21;100.00;100195.38;5103861;28;20562;-77
2024/01/15 06:17:02;;;;;;;2.17;0.95;;;;;;;0.19;100.00;100174.06;5106568;28;20044;-77
2024/01/15 06:19:29;;;;;;;2.35;0.63;;;;;;;0.12;100.00;100171.50;5106919;28;20047;-77
2024/01/15 06:21:56;;;;;;;2.78;0.80;;;;;;;0.07;100.00;100171.13;5110482;28;20041;-77
2024/01/15 06:24:22;;;;;;;1.00;0.47;;;;;;;0.05;100.00;100168.16;5107019;28;20503;-77
2024/01/15 06:26:49;;;;;;;3.60;0.75;;;;;;;0.04;100.00;100166.66;5107081;28;20037;-77
2024/01/15 06:29:16;;;;;;;1.98;0.70;;;;;;;0.03;100.00;100160.69;5109697;27;20050;-77
2024/01/15 06:31:42;;;;;;;2.03;1.25;;;;;;;0.04;100.00;100170.03;5109357;28;20051;-77
2024/01/15 06:34:09;;;;;;;2.30;0.93;;;;;;;0.04;100.00;100164.78;5106333;28;20048;-78
2024/01/15 06:36:36;;;;;;;3.83;0.50;;;;;;;0.03;100.00;100167.78;5106446;28;20047;-76
2024/01/15 06:39:03;;;;;;;3.50;0.60;;;;;;;0.00;100.00;100159.56;5086794;28;20041;-78
2024/01/15 06:41:30;;;;;;;1.85;0.88;;;;;;;0.01;100.00;100168.16;5107297;28;20142;-79
2024/01/15 06:43:56;;;;;;;3.75;1.50;;;;;;;-0.01;100.00;100162.59;5109967;28;20087;-79
2024/01/15 06:46:23;;;;;;;2.83;1.75;;;;;;;-0.01;100.00;100163.34;5088129;28;20128;-80
2024/01/15 06:48:50;;;;;;;7.68;1.27;;;;;;;0.00;100.00;100156.97;5113364;28;20044;-80
2024/01/15 06:51:16;;;;;;;3.45;1.60;;;;;;;0.00;100.00;100164.09;5094551;28;20044;-80
2024/01/15 06:53:43;;;;;;;5.75;2.45;;;;;;;0.00;100.00;100164.09;5080020;28;20194;-81
2024/01/15 06:56:10;;;;;;;2.08;1.73;;;;;;;-0.03;100.00;100162.22;5081783;28;20102;-79
2024/01/15 06:58:36;;;;;;;1.92;1.75;;;;;;;-0.06;100.00;100142.81;5101852;28;20232;-80
2024/01/15 07:01:04;;;;;;;1.73;1.23;;;;;;;-0.04;100.00;100147.66;5090164;28;20054;-82
2024/01/15 07:03:31;;;;;;;2.45;1.50;;;;;;;-0.04;100.00;100147.66;5109832;28;20044;-80
2024/01/15 07:06:00;;;;;;;1.85;1.05;;;;;;;-0.05;100.00;100144.28;5105260;28;20041;-81
2024/01/15 07:08:27;;;;;;;3.40;0.90;;;;;;;-0.06;100.00;100144.69;5108197;28;20044;-79
2024/01/15 07:10:53;;;;;;;2.55;0.98;;;;;;;-0.06;100.00;100140.19;5103878;28;20579;-79
2024/01/15 07:13:20;;;;;;;1.98;0.90;;;;;;;-0.08;100.00;100137.22;5110631;28;20436;-79
2024/01/15 07:15:46;;;;;;;1.20;1.05;;;;;;;-0.07;100.00;100137.94;5110084;28;20039;-79
2024/01/15 07:18:13;;;;;;;1.17;0.90;;;;;;;-0.06;100.00;100155.88;5113540;28;20087;-80
2024/01/15 07:20:40;;;;;;;1.40;0.90;;;;;;;-0.04;100.00;100181.69;5115255;28;20048;-80
2024/01/15 07:23:08;;;;;;;2.75;1.00;;;;;;;-0.03;100.00;100194.38;5098007;28;20040;-81
2024/01/15 07:25:36;;;;;;;2.72;1.45;;;;;;;-0.05;100.00;100190.66;5111386;28;20495;-80
2024/01/15 07:28:03;;;;;;;3.22;1.23;;;;;;;-0.06;100.00;100197.75;5108340;28;20063;-81
2024/01/15 07:30:30;;;;;;;2.88;1.15;;;;;;;-0.08;100.00;100173.09;5108436;28;20044;-80
2024/01/15 07:32:58;;;;;;;1.70;0.93;;;;;;;-0.09;100.00;100171.59;5127398;28;20032;-80
2024/01/15 07:35:25;;;;;;;1.73;1.17;;;;;;;-0.10;100.00;100164.88;5109176;28;20048;-79
2024/01/15 07:37:51;;;;;;;1.42;1.15;;;;;;;-0.11;100.00;100163.38;5108961;28;20048;-79
2024/01/15 07:40:18;;;;;;;2.83;1.60;;;;;;;-0.10;100.00;100160.38;5104629;28;20048;-83
2024/01/15 07:42:44;;;;;;;1.60;1.50;;;;;;;-0.09;100.00;100164.50;5093706;28;20049;-83
2024/01/15 07:45:11;;;;;;;2.45;1.35;;;;;;;-0.09;100.00;100155.91;5111634;28;20819;-81
2024/01/15 07:47:39;;;;;;;1.67;1.58;;;;;;;-0.10;100.00;100160.38;5124554;28;20051;-81
2024/01/15 07:50:06;;;;;;;4.88;1.70;;;;;;;-0.08;100.00;100162.63;5096135;28;20067;-79
2024/01/15 07:52:33;;;;;;;3.75;1.80;;;;;;;-0.07;100.00;100187.66;5111103;28;20035;-80
2024/01/15 07:55:00;;;;;;;1.92;1.80;;;;;;;-0.06;100.00;100192.53;5112306;28;20069;-80
2024/01/15 07:57:26;;;;;;;2.20;1.60;;;;;;;-0.09;100.00;100172.34;5109320;28;20078;-80
2024/01/15 07:59:53;;;;;;;1.98;1.88;;;;;;;-0.10;100.00;100181.31;5110139;28;20044;-80
2024/01/15 08:02:20;;;;;;;3.10;1.90;;;;;;;-0.10;100.00;100183.19;5112975;28;20150;-81
2024/01/15 08:04:46;;;;;;;1.92;1.77;;;;;;;-0.11;100.00;100189.56;5109068;28;20514;-80
2024/01/15 08:07:13;;;;;;;2.78;1.70;;;;;;;-0.11;100.00;100179.84;5104929;28;20044;-80
2024/01/15 08:09:41;;;;;;;2.70;1.95;;;;;;;-0.09;100.00;100177.59;5087469;28;20080;-83
2024/01/15 08:12:07;;;;;;;3.40;1.83;;;;;;;-0.10;100.00;100170.09;5090628;28;20049;-80
2024/01/15 08:14:34;;;;;;;4.10;2.30;;;;;;;-0.10;100.00;100159.66;5113054;28;20541;-80
2024/01/15 08:17:01;;;;;;;3.03;1.88;;;;;;;-0.10;100.00;100154.41;5111768;28;20094;-80
2024/01/15 08:19:28;;;;;;;4.22;2.17;;;;;;;-0.11;100.00;100158.91;5111777;28;20090;-81
2024/01/15 08:21:55;;;;;;;3.47;2.03;;;;;;;-0.10;100.00;100155.16;5095471;28;20052;-81
2024/01/15 08:24:21;;;;;;;3.55;1.85;;;;;;;-0.11;100.00;100166.00;5115759;28;20127;-80
2024/01/15 08:26:48;;;;;;;1.65;1.55;;;;;;;-0.09;100.00;100163.75;5115031;28;20048;-80
2024/01/15 08:29:14;;;;;;;4.88;2.20;;;;;;;-0.08;100.00;100173.84;5119928;28;20044;-80
2024/01/15 08:31:41;;;;;;;1.92;1.65;;;;;;;-0.08;100.00;100175.72;5118970;28;20044;-81
2024/01/15 08:34:08;;;;;;;3.50;2.08;;;;;;;-0.07;100.00;100185.78;5116672;28;20774;-81
2024/01/15 08:36:36;;;;;;;2.85;1.65;;;;;;;-0.08;100.00;100184.31;5115076;28;20427;-84
2024/01/15 08:39:03;;;;;;;1.77;1.35;;;;;;;-0.08;100.00;100175.72;5112727;28;20048;-81
2024/01/15 08:41:32;;;;;;;1.55;1.13;;;;;;;-0.09;100.00;100169.72;5097600;28;20091;-81
2024/01/15 08:43:59;;;;;;;2.35;1.08;;;;;;;-0.07;100.00;100164.88;5113681;28;20523;-79
2024/01/15 08:46:25;;;;;;;3.08;1.50;;;;;;;-0.05;100.00;100173.09;5116593;28;20037;-82
2024/01/15 08:48:52;;;;;;;4.93;1.27;;;;;;;-0.01;100.00;100175.69;5112442;28;20044;-84
2024/01/15 08:51:19;;;;;;;2.90;1.30;;;;;;;0.05;100.00;100168.91;5113822;28;20068;-78
2024/01/15 08:53:45;;;;;;;4.82;1.40;;;;;;;0.11;100.00;100161.41;5093705;28;20094;-81
2024/01/15 08:56:12;;;;;;;3.15;1.30;;;;;;;0.13;100.00;100167.75;5112986;28;20047;-82
2024/01/15 08:58:38;;;;;;;5.30;1.85;;;;;;;0.13;100.00;100170.38;5110943;28;20071;-79
2024/01/15 09:01:05;;;;;;;2.70;1.42;;;;;;;0.12;100.00;100171.50;5115020;28;20051;-81
2024/01/15 09:03:33;;;;;;;2.10;1.15;;;;;;;0.11;100.00;100182.34;5097587;28;20075;-79
2024/01/15 09:06:00;;;;;;;6.35;1.33;;;;;;;0.12;100.00;100181.22;5117587;28;20132;-78
2024/01/15 09:08:28;;;;;;;2.90;1.20;;;;;;;0.15;100.00;100189.06;5116721;28;20043;-81
2024/01/15 09:10:54;;;;;;;3.00;1.48;;;;;;;0.21;100.00;100197.25;5115779;28;20076;-79
2024/01/15 09:13:22;;;;;;;2.25;1.15;;;;;;;0.24;100.00;100205.09;5096663;28;20499;-80
2024/01/15 09:15:48;;;;;;;4.72;1.35;;;;;;;0.23;100.00;100208.09;5116615;28;20048;-81
2024/01/15 09:18:15;;;;;;;2.35;1.42;;;;;;;0.20;100.00;100190.53;5096679;28;20053;-82
2024/01/15 09:20:42;;;;;;;6.10;1.40;;;;;;;0.18;100.00;100185.69;5103168;28;20037;-79
2024/01/15 09:23:09;;;;;;;2.92;1.23;;;;;;;0.17;100.00;100178.19;5113469;28;20182;-81
2024/01/15 09:25:35;;;;;;;1.33;0.75;;;;;;;0.19;100.00;100173.34;5084435;28;20855;-81
2024/01/15 09:28:02;;;;;;;4.97;0.85;;;;;;;0.19;100.00;100175.94;5091620;28;20052;-78
2024/01/15 09:30:30;;;;;;;4.57;1.00;;;;;;;0.18;100.00;100180.44;5112687;28;20060;-83
2024/01/15 09:32:58;;;;;;;1.52;0.70;;;;;;;0.17;100.00;100180.81;5083202;28;20080;-84
2024/01/15 09:35:25;;;;;;;3.03;0.70;;;;;;;0.15;100.00;100181.19;5097978;28;20110;-81
2024/01/15 09:37:52;;;;;;;1.35;1.00;;;;;;;0.15;100.00;100181.19;5127106;28;20040;-81
2024/01/15 09:40:20;;;;;;;2.42;1.30;;;;;;;0.18;100.00;100187.53;5116247;28;20084;-80
2024/01/15 09:42:47;;;;;;;6.72;1.50;;;;;;;0.26;100.00;100178.53;5098597;28;20068;-81
2024/01/15 09:45:16;;;;;;;2.80;0.80;;;;;;;0.39;100.00;100189.31;5118518;28;20044;-82
2024/01/15 09:47:43;;;;;;;1.25;1.10;;;;;;;0.42;100.00;100188.53;5114171;28;20844;-77
2024/01/15 09:50:13;;;;;;;4.72;0.70;;;;;;;0.40;100.00;100185.56;5112785;28;20083;-78
2024/01/15 09:52:40;;;;;;;3.63;1.05;;;;;;;0.41;100.00;100179.94;5109696;28;20079;-84
2024/01/15 09:55:09;;;;;;;4.15;0.60;;;;;;;0.40;100.00;100181.06;5118766;28;20047;-81
2024/01/15 09:57:36;;;;;;;1.55;0.50;;;;;;;0.39;100.00;100178.84;5113543;28;20942;-80
2024/01/15 10:00:06;;;;;;;5.32;1.33;;;;;;;0.37;100.00;100184.47;5098807;28;20040;-81
2024/01/15 10:02:35;;;;;;;4.20;0.90;;;;;;;0.37;100.00;100187.09;5096273;28;20041;-80
2024/01/15 10:05:04;;;;;;;1.73;1.13;;;;;;;0.40;100.00;100186.28;5108763;28;20067;-81
2024/01/15 10:07:35;;;;;;;3.95;0.73;;;;;;;0.45;100.00;100185.16;5107023;28;20039;-81
2024/01/15 10:10:03;;;;;;;3.95;0.90;;;;;;;0.56;100.00;100194.44;5115099;28;20087;-81
2024/01/15 10:12:30;;;;;;;2.70;0.85;;;;;;;0.86;100.00;100206.22;5110407;28;20147;-79
2024/01/15 10:14:57;;;;;;;3.78;0.95;;;;;;;0.85;100.00;100192.34;5080338;28;20153;-79
2024/01/15 10:17:27;;;;;;;1.02;0.90;;;;;;;0.78;100.00;100181.22;5113924;28;20036;-78
2024/01/15 10:19:53;;;;;;;3.35;1.10;;;;;;;0.76;100.00;100175.59;5110598;28;20131;-78
2024/01/15 10:22:20;;;;;;;6.88;1.52;;;;;;;0.87;100.00;100186.72;5108214;28;20116;-80
2024/01/15 10:24:47;;;;;;;2.65;0.82;;;;;;;1.07;100.00;100198.19;5096124;28;20099;-81
2024/01/15 10:27:15;;;;;;;5.35;1.00;;;;;;;1.13;100.00;100203.78;5104176;28;20137;-81
2024/01/15 10:29:42;;;;;;;2.35;1.15;;;;;;;1.02;100.00;100219.56;5119802;28;20048;-82
2024/01/15 10:32:11;;;;;;;7.40;0.88;;;;;;;0.86;100.00;100212.19;5131482;28;20100;-81
2024/01/15 10:34:45;;;;;;;2.63;0.88;;;;;;;0.74;100.00;100204.81;5108158;28;20047;-80
2024/01/15 10:37:12;;;;;;;4.47;0.80;;;;;;;0.68;100.00;100201.09;5129318;28;20051;-82
2024/01/15 10:39:40;;;;;;;2.80;1.30;;;;;;;0.62;100.00;100202.63;5116966;28;20098;-84
2024/01/15 10:42:06;;;;;;;1.58;1.00;;;;;;;0.60;100.00;100189.19;5088479;28;20062;-84
2024/01/15 10:44:35;;;;;;;2.90;1.05;;;;;;;0.65;100.00;100194.00;5124973;28;20048;-83
2024/01/15 10:47:02;;;;;;;2.15;1.08;;;;;;;0.72;100.00;100191.34;5108186;28;20123;-84
2024/01/15 10:49:30;;;;;;;3.85;1.17;;;;;;;0.83;100.00;100194.63;5109028;28;20063;-83
2024/01/15 10:52:02;;;;;;;5.70;1.25;;;;;;;0.86;100.00;100191.22;5119464;28;20110;-84
2024/01/15 10:54:32;;;;;;;4.78;1.23;;;;;;;0.90;100.00;100194.56;5092427;28;20060;-83
2024/01/15 10:57:00;;;;;;;4.28;1.38;;;;;;;0.97;100.00;100199.75;5093234;28;20050;-85
2024/01/15 10:59:29;;;;;;;4.75;1.75;;;;;;;1.10;100.00;100205.28;5111781;28;20097;-83
2024/01/15 11:01:56;;;;;;;2.50;1.05;;;;;;;1.16;100.00;100209.00;5116613;28;20861;-83
2024/01/15 11:04:26;;;;;;;5.05;1.40;;;;;;;1.19;100.00;100207.47;5114698;28;20060;-83
2024/01/15 11:06:55;;;;;;;4.55;0.90;;;;;;;1.22;100.00;100217.16;5095146;28;20098;-82
2024/01/15 11:09:24;;;;;;;2.50;1.10;;;;;;;1.25;100.00;100219.00;5093956;28;20075;-83
2024/01/15 11:12:06;;;;;;;5.05;1.10;;;;;;;1.26;100.00;100225.75;5102644;28;20044;-79
2024/01/15 11:14:39;;;;;;;2.95;0.90;;;;;;;1.29;100.00;100219.72;5111464;28;20059;-81
2024/01/15 11:17:06;;;;;;;7.45;1.20;;;;;;;1.27;100.00;100225.34;5099666;28;20079;-82
2024/01/15 11:19:37;;;;;;;6.03;1.35;;;;;;;1.28;100.00;100228.72;5102132;28;21210;-79
2024/01/15 11:22:05;;;;;;;5.35;0.63;;;;;;;1.28;100.00;100237.34;5099933;28;20044;-79